createdAt,value
2023-03-17T00:03:55.371Z,10.70
2023-03-17T00:09:01.354Z,10.60
2023-03-17T00:14:05.374Z,10.60
2023-03-17T00:19:16.626Z,10.60
2023-03-17T00:24:22.403Z,10.50
2023-03-17T00:29:26.979Z,10.40
2023-03-17T00:34:31.111Z,10.40
2023-03-17T00:39:36.763Z,10.40
2023-03-17T00:44:40.799Z,10.30
2023-03-17T00:49:45.136Z,10.30
2023-03-17T00:54:50.562Z,10.30
2023-03-17T00:59:54.773Z,10.30
2023-03-17T01:05:06.359Z,10.30
2023-03-17T01:10:19.419Z,10.20
2023-03-17T01:15:24.712Z,10.20
2023-03-17T01:20:32.754Z,10.10
2023-03-17T01:25:39.185Z,10.10
2023-03-17T01:30:43.837Z,10.00
2023-03-17T01:35:48.434Z,10.00
2023-03-17T01:40:54.836Z,10.00
2023-03-17T01:46:29.249Z,9.90
2023-03-17T01:51:38.871Z,9.90
2023-03-17T01:56:50.117Z,9.80
2023-03-17T02:02:00.756Z,9.80
2023-03-17T02:07:05.561Z,9.80
2023-03-17T02:12:13.493Z,9.80
2023-03-17T02:17:18.427Z,9.70
2023-03-17T02:22:24.026Z,9.70
2023-03-17T02:27:34.832Z,9.70
2023-03-17T02:32:40.096Z,9.70
2023-03-17T02:37:46.698Z,9.70
2023-03-17T02:42:51.390Z,9.70
2023-03-17T02:47:57.261Z,9.70
2023-03-17T02:53:02.593Z,9.70
2023-03-17T02:58:06.696Z,9.70
2023-03-17T03:03:10.771Z,9.70
2023-03-17T03:08:16.506Z,9.70
2023-03-17T03:13:21.848Z,9.70
2023-03-17T03:18:26.161Z,9.70
2023-03-17T03:23:31.585Z,9.70
2023-03-17T03:28:36.142Z,9.70
2023-03-17T03:33:40.112Z,9.70
2023-03-17T03:38:45.803Z,9.70
2023-03-17T03:43:49.762Z,9.70
2023-03-17T03:48:53.915Z,9.80
2023-03-17T03:53:59.288Z,9.70
2023-03-17T03:59:03.257Z,9.80
2023-03-17T04:04:07.244Z,9.80
2023-03-17T04:09:12.707Z,9.70
2023-03-17T04:14:16.728Z,9.70
2023-03-17T04:19:21.597Z,9.70
2023-03-17T04:24:27.689Z,9.70
2023-03-17T04:29:32.435Z,9.70
2023-03-17T04:34:36.459Z,9.70
2023-03-17T04:39:42.189Z,9.70
2023-03-17T04:44:46.549Z,9.70
2023-03-17T04:49:50.817Z,9.80
2023-03-17T04:54:56.390Z,9.80
2023-03-17T05:00:00.343Z,9.80
2023-03-17T05:05:04.534Z,9.80
2023-03-17T05:10:12.393Z,9.90
2023-03-17T05:15:17.125Z,9.90
2023-03-17T05:20:21.314Z,9.90
2023-03-17T05:25:26.691Z,9.80
2023-03-17T05:30:31.228Z,9.80
2023-03-17T05:35:35.592Z,9.80
2023-03-17T05:40:41.204Z,9.80
2023-03-17T05:45:45.611Z,9.80
2023-03-17T05:50:49.715Z,9.80
2023-03-17T05:55:55.246Z,9.80
2023-03-17T06:00:59.366Z,9.80
2023-03-17T06:06:03.526Z,9.80
2023-03-17T06:11:08.997Z,9.80
2023-03-17T06:16:13.055Z,9.80
2023-03-17T06:21:17.256Z,9.80
2023-03-17T06:26:22.986Z,9.70
2023-03-17T06:31:27.872Z,9.70
2023-03-17T06:36:32.770Z,9.80
2023-03-17T06:41:38.144Z,9.80
2023-03-17T06:46:42.509Z,9.80
2023-03-17T06:51:46.713Z,9.90
2023-03-17T06:56:52.270Z,9.90
2023-03-17T07:01:56.355Z,10.00
2023-03-17T07:07:00.498Z,10.00
2023-03-17T07:12:07.257Z,10.10
2023-03-17T07:17:14.798Z,10.20
2023-03-17T07:22:18.991Z,10.20
2023-03-17T07:27:25.404Z,10.30
2023-03-17T07:32:29.599Z,10.30
2023-03-17T07:37:33.906Z,10.40
2023-03-17T07:42:39.349Z,10.50
2023-03-17T07:47:43.379Z,10.60
2023-03-17T07:52:47.818Z,10.70
2023-03-17T07:57:53.760Z,10.70
2023-03-17T08:03:09.491Z,10.90
2023-03-17T08:08:14.624Z,10.90
2023-03-17T08:13:20.317Z,11.00
2023-03-17T08:18:24.517Z,11.10
2023-03-17T08:23:28.555Z,11.20
2023-03-17T08:28:34.600Z,11.30
2023-03-17T08:33:38.619Z,11.40
2023-03-17T08:38:44.048Z,11.50
2023-03-17T08:43:50.500Z,11.70
2023-03-17T08:48:56.460Z,11.80
2023-03-17T08:54:01.213Z,12.00
2023-03-17T08:59:08.138Z,12.20
2023-03-17T09:04:12.241Z,12.40
2023-03-17T09:09:16.893Z,12.60
2023-03-17T09:14:24.883Z,12.70
2023-03-17T09:19:29.016Z,12.90
2023-03-17T09:24:33.051Z,13.10
2023-03-17T09:29:38.504Z,13.20
2023-03-17T09:34:42.979Z,13.50
2023-03-17T09:39:47.193Z,13.80
2023-03-17T09:45:12.424Z,14.40
2023-03-17T09:50:21.118Z,15.20
2023-03-17T09:55:29.618Z,16.10
2023-03-17T10:00:35.774Z,17.20
2023-03-17T10:05:40.033Z,18.40
2023-03-17T10:10:49.205Z,19.30
2023-03-17T10:15:59.812Z,19.80
2023-03-17T10:21:07.692Z,20.10
2023-03-17T10:26:28.745Z,19.80
2023-03-17T10:31:38.024Z,19.20
2023-03-17T10:36:45.690Z,18.40
2023-03-17T10:41:57.021Z,17.90
2023-03-17T10:47:02.984Z,17.40
2023-03-17T10:52:09.532Z,17.00
2023-03-17T10:57:15.882Z,16.80
2023-03-17T11:02:28.369Z,17.00
2023-03-17T11:07:39.492Z,17.60
2023-03-17T11:12:44.005Z,18.10
2023-03-17T11:17:57.208Z,18.60
2023-03-17T11:23:10.702Z,19.10
2023-03-17T11:28:21.329Z,19.50
2023-03-17T11:33:37.384Z,19.90
2023-03-17T11:38:52.428Z,20.30
2023-03-17T11:44:40.300Z,20.60
2023-03-17T11:49:49.765Z,20.60
2023-03-17T11:55:01.272Z,20.40
2023-03-17T12:00:12.758Z,20.40
2023-03-17T12:05:24.100Z,20.40
2023-03-17T12:10:36.457Z,20.50
2023-03-17T12:15:46.610Z,20.60
2023-03-17T12:20:58.939Z,20.80
2023-03-17T12:26:08.558Z,21.10
2023-03-17T12:31:20.546Z,21.00
2023-03-17T12:36:28.159Z,21.20
2023-03-17T12:41:56.869Z,21.60
2023-03-17T12:47:41.635Z,21.90
2023-03-17T12:53:11.411Z,22.10
2023-03-17T12:58:30.759Z,22.00
2023-03-17T13:03:38.576Z,22.10
2023-03-17T13:08:44.235Z,22.20
2023-03-17T13:14:08.597Z,22.20
2023-03-17T13:19:22.936Z,22.10
2023-03-17T13:24:47.734Z,21.80
2023-03-17T13:29:53.089Z,21.70
2023-03-17T13:35:16.783Z,21.70
2023-03-17T13:40:26.546Z,21.70
2023-03-17T13:45:38.759Z,21.80
2023-03-17T13:50:44.359Z,21.80
2023-03-17T13:56:16.663Z,21.80
2023-03-17T14:01:22.646Z,21.70
2023-03-17T14:06:31.417Z,21.40
2023-03-17T14:11:39.894Z,21.20
2023-03-17T14:16:54.265Z,21.00
2023-03-17T14:22:05.365Z,20.80
2023-03-17T14:27:15.008Z,20.80
2023-03-17T14:32:22.070Z,20.70
2023-03-17T14:37:27.037Z,20.60
2023-03-17T14:42:33.306Z,20.40
2023-03-17T14:47:43.471Z,20.30
2023-03-17T14:52:47.642Z,20.20
2023-03-17T14:57:54.222Z,20.00
2023-03-17T15:03:00.613Z,19.90
2023-03-17T15:08:46.208Z,19.80
2023-03-17T15:13:56.052Z,19.70
2023-03-17T15:19:07.908Z,19.60
2023-03-17T15:24:39.974Z,19.50
2023-03-17T15:29:45.810Z,19.40
2023-03-17T15:34:51.753Z,19.30
2023-03-17T15:39:57.279Z,19.20
2023-03-17T15:45:03.870Z,19.20
2023-03-17T15:50:28.611Z,19.10
2023-03-17T15:55:33.440Z,19.10
2023-03-17T16:00:39.219Z,19.00
2023-03-17T16:05:44.474Z,18.90
2023-03-17T16:10:48.715Z,18.80
2023-03-17T16:15:59.246Z,18.70
2023-03-17T16:21:04.293Z,18.60
2023-03-17T16:26:15.485Z,18.50
2023-03-17T16:31:25.521Z,18.40
2023-03-17T16:36:29.831Z,18.30
2023-03-17T16:41:36.422Z,18.10
2023-03-17T16:46:44.930Z,17.90
2023-03-17T16:51:50.524Z,17.80
2023-03-17T16:56:54.946Z,17.70
2023-03-17T17:02:01.207Z,17.60
2023-03-17T17:07:05.333Z,17.50
2023-03-17T17:12:10.574Z,17.50
2023-03-17T17:17:16.060Z,17.40
2023-03-17T17:22:20.356Z,17.30
2023-03-17T17:27:24.390Z,17.20
2023-03-17T17:32:30.033Z,17.10
2023-03-17T17:37:34.929Z,17.10
2023-03-17T17:42:39.181Z,17.00
2023-03-17T17:47:45.076Z,16.90
2023-03-17T17:52:49.323Z,16.90
2023-03-17T17:57:53.753Z,16.70
2023-03-17T18:02:59.205Z,16.70
2023-03-17T18:08:03.788Z,16.60
2023-03-17T18:13:07.939Z,16.60
2023-03-17T18:18:13.408Z,16.50
2023-03-17T18:23:17.698Z,16.50
2023-03-17T18:28:21.900Z,16.40
2023-03-17T18:33:28.397Z,16.30
2023-03-17T18:38:32.817Z,16.20
2023-03-17T18:43:37.005Z,16.20
2023-03-17T18:48:42.554Z,16.10
2023-03-17T18:53:46.927Z,16.10
2023-03-17T18:58:51.037Z,16.00
2023-03-17T19:03:56.639Z,16.00
2023-03-17T19:09:02.303Z,16.00
2023-03-17T19:14:06.709Z,15.90
2023-03-17T19:19:12.407Z,15.90
2023-03-17T19:24:16.436Z,15.90
2023-03-17T19:29:20.529Z,15.80
2023-03-17T19:34:27.185Z,15.80
2023-03-17T19:39:31.367Z,15.80
2023-03-17T19:44:35.523Z,15.70
2023-03-17T19:49:41.911Z,15.80
2023-03-17T19:54:46.128Z,15.70
2023-03-17T19:59:50.356Z,15.70
2023-03-17T20:04:55.949Z,15.70
2023-03-17T20:10:00.196Z,15.70
2023-03-17T20:15:05.464Z,15.60
2023-03-17T20:20:14.525Z,15.60
2023-03-17T20:25:18.845Z,15.60
2023-03-17T20:30:23.499Z,15.50
2023-03-17T20:35:29.162Z,15.50
2023-03-17T20:40:33.486Z,15.50
2023-03-17T20:45:38.491Z,15.50
2023-03-17T20:50:50.988Z,15.40
2023-03-17T20:55:56.616Z,15.40
2023-03-17T21:01:01.832Z,15.40
2023-03-17T21:06:07.525Z,15.40
2023-03-17T21:11:17.577Z,15.30
2023-03-17T21:16:25.104Z,15.30
2023-03-17T21:21:32.190Z,15.30
2023-03-17T21:26:36.489Z,15.20
2023-03-17T21:31:41.078Z,15.20
2023-03-17T21:36:46.689Z,15.10
2023-03-17T21:41:52.985Z,15.10
2023-03-17T21:46:57.881Z,15.00
2023-03-17T21:52:03.542Z,14.90
2023-03-17T21:57:07.563Z,14.90
2023-03-17T22:02:13.073Z,14.90
2023-03-17T22:07:18.717Z,14.80
2023-03-17T22:12:24.038Z,14.80
2023-03-17T22:17:28.207Z,14.70
2023-03-17T22:22:34.653Z,14.60
2023-03-17T22:27:38.718Z,14.50
2023-03-17T22:32:42.999Z,14.50
2023-03-17T22:37:48.882Z,14.50
2023-03-17T22:42:52.959Z,14.40
2023-03-17T22:47:57.101Z,14.40
2023-03-17T22:53:02.572Z,14.40
2023-03-17T22:58:06.696Z,14.30
2023-03-17T23:03:10.810Z,14.30
2023-03-17T23:08:16.253Z,14.30
2023-03-17T23:13:22.383Z,14.30
2023-03-17T23:18:26.452Z,14.20
2023-03-17T23:23:32.782Z,14.20
2023-03-17T23:28:37.048Z,14.20
2023-03-17T23:33:40.995Z,14.10
2023-03-17T23:38:47.396Z,14.10
2023-03-17T23:43:51.448Z,14.10
2023-03-17T23:48:55.532Z,14.10
2023-03-17T23:54:01.106Z,14.00
2023-03-17T23:59:07.547Z,14.00
